createdAt,value
2022-12-20T00:00:00.131Z,21.92
2022-12-20T00:02:02.463Z,20.02
2022-12-20T00:04:08.175Z,19.80
2022-12-20T00:06:11.235Z,19.80
2022-12-20T00:08:13.598Z,19.85
2022-12-20T00:10:15.269Z,21.98
2022-12-20T00:12:17.463Z,19.27
2022-12-20T00:14:19.259Z,19.98
2022-12-20T00:16:24.630Z,19.10
2022-12-20T00:18:26.358Z,19.92
2022-12-20T00:20:28.559Z,20.20
2022-12-20T00:22:31.278Z,18.40
2022-12-20T00:24:33.173Z,18.05
2022-12-20T00:26:35.969Z,18.05
2022-12-20T00:28:38.884Z,19.80
2022-12-20T00:30:40.593Z,17.65
2022-12-20T00:32:42.879Z,19.58
2022-12-20T00:34:44.643Z,18.13
2022-12-20T00:36:46.390Z,19.75
2022-12-20T00:38:50.051Z,18.40
2022-12-20T00:41:13.349Z,18.52
2022-12-20T00:43:15.038Z,19.02
2022-12-20T00:45:16.840Z,16.23
2022-12-20T00:47:18.653Z,18.50
2022-12-20T00:49:20.465Z,16.65
2022-12-20T00:51:26.250Z,16.08
2022-12-20T00:53:28.705Z,18.77
2022-12-20T00:55:30.331Z,18.70
2022-12-20T00:57:33.387Z,15.45
2022-12-20T00:59:36.531Z,15.38
2022-12-20T01:01:38.201Z,17.83
2022-12-20T01:03:40.204Z,20.88
2022-12-20T01:05:54.411Z,17.92
2022-12-20T01:07:56.043Z,16.75
2022-12-20T01:09:57.693Z,20.58
2022-12-20T01:11:59.395Z,17.13
2022-12-20T01:14:06.041Z,19.75
2022-12-20T01:16:09.891Z,15.65
2022-12-20T01:20:13.331Z,15.82
2022-12-20T01:22:14.939Z,15.57
2022-12-20T01:24:18.678Z,16.70
2022-12-20T01:26:22.912Z,15.85
2022-12-20T01:28:24.584Z,15.80
2022-12-20T01:30:26.331Z,18.38
2022-12-20T01:32:28.140Z,13.75
2022-12-20T01:34:29.813Z,20.52
2022-12-20T01:36:36.093Z,15.75
2022-12-20T01:38:37.985Z,17.73
2022-12-20T01:40:39.673Z,15.35
2022-12-20T01:42:41.331Z,15.40
2022-12-20T01:44:43.066Z,17.02
2022-12-20T01:46:47.172Z,16.30
2022-12-20T01:49:16.536Z,12.90
2022-12-20T01:51:19.307Z,18.55
2022-12-20T01:53:22.703Z,14.80
2022-12-20T01:55:25.947Z,17.05
2022-12-20T01:57:32.137Z,14.70
2022-12-20T01:59:35.821Z,16.55
2022-12-20T02:01:37.897Z,15.88
2022-12-20T02:03:40.629Z,16.20
2022-12-20T02:05:48.056Z,14.48
2022-12-20T02:07:54.350Z,25.23
2022-12-20T02:09:57.450Z,15.80
2022-12-20T02:12:02.430Z,19.48
2022-12-20T02:14:10.522Z,15.43
2022-12-20T02:16:15.709Z,16.30
2022-12-20T02:18:22.625Z,16.70
2022-12-20T02:20:48.161Z,15.70
2022-12-20T02:23:17.019Z,16.08
2022-12-20T02:25:27.686Z,15.95
2022-12-20T02:28:14.450Z,15.77
2022-12-20T02:30:25.005Z,16.05
2022-12-20T02:32:30.936Z,14.07
2022-12-20T02:34:34.324Z,17.08
2022-12-20T02:36:36.330Z,11.93
2022-12-20T02:38:42.988Z,14.60
2022-12-20T02:40:45.314Z,12.68
2022-12-20T02:42:48.661Z,17.35
2022-12-20T02:45:15.925Z,16.58
2022-12-20T02:47:41.185Z,16.83
2022-12-20T02:49:43.233Z,14.43
2022-12-20T02:51:47.524Z,17.27
2022-12-20T02:53:49.351Z,16.88
2022-12-20T02:56:15.189Z,15.98
2022-12-20T02:58:31.900Z,17.40
2022-12-20T03:00:38.853Z,16.92
2022-12-20T03:03:00.069Z,16.65
2022-12-20T03:05:02.792Z,14.75
2022-12-20T03:07:07.722Z,16.77
2022-12-20T03:09:10.541Z,21.98
2022-12-20T03:11:12.269Z,16.38
2022-12-20T03:13:14.871Z,16.42
2022-12-20T03:15:16.688Z,15.43
2022-12-20T03:17:18.741Z,15.02
2022-12-20T03:19:20.706Z,15.05
2022-12-20T03:21:22.506Z,17.23
2022-12-20T03:23:24.443Z,17.45
2022-12-20T03:25:26.456Z,19.88
2022-12-20T03:27:28.247Z,18.52
2022-12-20T03:29:29.921Z,16.60
2022-12-20T03:31:31.843Z,17.92
2022-12-20T03:33:33.759Z,16.77
2022-12-20T03:35:35.582Z,16.40
2022-12-20T03:37:37.349Z,19.23
2022-12-20T03:39:38.982Z,18.00
2022-12-20T03:41:42.584Z,17.42
2022-12-20T03:43:45.815Z,18.38
2022-12-20T03:45:47.841Z,16.58
2022-12-20T03:47:49.524Z,16.15
2022-12-20T03:49:52.135Z,18.35
2022-12-20T03:51:53.878Z,18.42
2022-12-20T03:53:55.752Z,21.23
2022-12-20T03:55:57.502Z,20.15
2022-12-20T03:58:00.359Z,22.42
2022-12-20T04:00:02.234Z,17.20
2022-12-20T04:02:04.485Z,17.83
2022-12-20T04:04:08.397Z,18.73
2022-12-20T04:06:10.043Z,19.38
2022-12-20T04:08:12.017Z,17.27
2022-12-20T04:10:15.298Z,16.35
2022-12-20T04:12:16.947Z,19.35
2022-12-20T04:14:18.648Z,22.33
2022-12-20T04:16:23.045Z,18.85
2022-12-20T04:18:24.727Z,19.38
2022-12-20T04:20:26.565Z,18.73
2022-12-20T04:22:28.178Z,19.00
2022-12-20T04:24:29.800Z,18.23
2022-12-20T04:26:31.596Z,21.40
2022-12-20T04:28:33.718Z,19.38
2022-12-20T04:30:36.619Z,20.30
2022-12-20T04:32:38.410Z,20.30
2022-12-20T04:34:40.082Z,20.67
2022-12-20T04:36:41.713Z,21.30
2022-12-20T04:38:43.382Z,20.02
2022-12-20T04:40:45.007Z,20.73
2022-12-20T04:42:46.698Z,20.75
2022-12-20T04:44:49.813Z,20.08
2022-12-20T04:46:51.620Z,18.70
2022-12-20T04:48:58.936Z,20.15
2022-12-20T04:51:01.140Z,18.38
2022-12-20T04:53:23.862Z,17.48
2022-12-20T04:55:25.534Z,21.13
2022-12-20T04:57:27.192Z,19.77
2022-12-20T04:59:28.887Z,21.38
2022-12-20T05:01:30.602Z,20.25
2022-12-20T05:03:32.435Z,18.85
2022-12-20T05:05:34.205Z,20.15
2022-12-20T05:07:36.969Z,18.65
2022-12-20T05:09:38.833Z,22.08
2022-12-20T05:11:40.557Z,18.67
2022-12-20T05:13:42.309Z,20.92
2022-12-20T05:15:44.080Z,19.00
2022-12-20T05:17:45.908Z,20.08
2022-12-20T05:19:47.888Z,18.48
2022-12-20T05:22:07.768Z,19.40
2022-12-20T05:24:28.312Z,21.40
2022-12-20T05:26:32.952Z,19.60
2022-12-20T05:28:34.729Z,20.05
2022-12-20T05:30:36.442Z,20.05
2022-12-20T05:32:38.389Z,19.15
2022-12-20T05:34:40.062Z,18.75
2022-12-20T05:36:41.741Z,20.15
2022-12-20T05:38:43.391Z,18.92
2022-12-20T05:40:47.950Z,20.55
2022-12-20T05:42:49.579Z,19.88
2022-12-20T05:44:51.669Z,19.63
2022-12-20T05:46:53.423Z,23.25
2022-12-20T05:48:55.277Z,20.75
2022-12-20T05:50:56.944Z,19.75
2022-12-20T05:52:58.577Z,22.48
2022-12-20T05:55:02.407Z,25.40
2022-12-20T05:57:04.137Z,19.58
2022-12-20T05:59:06.082Z,21.17
2022-12-20T06:01:10.416Z,21.80
2022-12-20T06:03:12.326Z,21.67
2022-12-20T06:05:13.998Z,19.52
2022-12-20T06:07:15.609Z,22.42
2022-12-20T06:09:17.323Z,21.45
2022-12-20T06:11:20.361Z,22.02
2022-12-20T06:13:24.829Z,19.90
2022-12-20T06:15:27.832Z,24.52
2022-12-20T06:17:29.485Z,24.77
2022-12-20T06:19:31.229Z,23.75
2022-12-20T06:21:32.913Z,26.10
2022-12-20T06:23:34.621Z,22.02
2022-12-20T06:25:38.329Z,23.73
2022-12-20T06:27:39.989Z,25.23
2022-12-20T06:29:41.801Z,23.15
2022-12-20T06:31:43.973Z,21.85
2022-12-20T06:33:45.688Z,21.30
2022-12-20T06:35:47.497Z,22.48
2022-12-20T06:37:49.137Z,16.02
2022-12-20T06:39:50.815Z,16.23
2022-12-20T06:41:52.516Z,19.73
2022-12-20T06:43:54.225Z,17.20
2022-12-20T06:45:57.501Z,16.67
2022-12-20T06:47:59.239Z,17.35
2022-12-20T06:50:00.892Z,21.38
2022-12-20T06:52:02.537Z,19.58
2022-12-20T06:54:04.220Z,14.95
2022-12-20T06:56:06.261Z,18.75
2022-12-20T06:58:07.929Z,20.45
2022-12-20T07:00:10.563Z,25.80
2022-12-20T07:02:12.768Z,20.83
2022-12-20T07:04:14.560Z,25.20
2022-12-20T07:06:16.533Z,19.35
2022-12-20T07:08:18.118Z,20.30
2022-12-20T07:10:19.807Z,18.58
2022-12-20T07:12:22.295Z,16.13
2022-12-20T07:14:24.352Z,20.35
2022-12-20T07:16:29.242Z,18.52
2022-12-20T07:18:31.643Z,18.23
2022-12-20T07:20:34.857Z,20.92
2022-12-20T07:22:36.640Z,18.38
2022-12-20T07:24:39.288Z,21.20
2022-12-20T07:26:41.214Z,19.45
2022-12-20T07:28:43.407Z,23.10
2022-12-20T07:30:46.613Z,25.20
2022-12-20T07:32:49.368Z,26.42
2022-12-20T07:34:51.004Z,23.92
2022-12-20T07:36:52.754Z,27.25
2022-12-20T07:38:54.585Z,22.20
2022-12-20T07:40:56.290Z,23.50
2022-12-20T07:42:57.959Z,22.23
2022-12-20T07:44:59.616Z,14.80
2022-12-20T07:47:01.451Z,22.73
2022-12-20T07:49:03.138Z,21.13
2022-12-20T07:51:10.581Z,20.27
2022-12-20T07:53:12.362Z,21.58
2022-12-20T07:55:15.285Z,18.48
2022-12-20T07:57:26.017Z,19.83
2022-12-20T07:59:31.345Z,20.08
2022-12-20T08:01:33.192Z,19.77
2022-12-20T08:03:41.561Z,21.83
2022-12-20T08:05:46.150Z,19.88
2022-12-20T08:07:51.137Z,23.70
2022-12-20T08:09:57.416Z,20.83
2022-12-20T08:11:59.487Z,19.25
2022-12-20T08:14:01.546Z,19.55
2022-12-20T08:16:03.344Z,19.08
2022-12-20T08:18:06.392Z,16.10
2022-12-20T08:20:09.025Z,21.45
2022-12-20T08:22:10.650Z,21.27
2022-12-20T08:24:12.327Z,17.73
2022-12-20T08:26:14.381Z,20.48
2022-12-20T08:28:16.262Z,19.35
2022-12-20T08:30:19.192Z,21.33
2022-12-20T08:32:21.440Z,19.80
2022-12-20T08:34:23.955Z,18.98
2022-12-20T08:36:26.264Z,18.73
2022-12-20T08:38:33.979Z,21.95
2022-12-20T08:40:35.617Z,23.00
2022-12-20T08:42:37.359Z,22.95
2022-12-20T08:44:39.582Z,31.10
2022-12-20T08:46:41.567Z,26.55
2022-12-20T08:48:43.236Z,16.98
2022-12-20T08:50:45.606Z,17.30
2022-12-20T08:52:47.581Z,18.02
2022-12-20T08:54:49.322Z,23.50
2022-12-20T08:56:52.343Z,22.77
2022-12-20T08:58:54.931Z,16.90
2022-12-20T09:01:06.356Z,17.92
2022-12-20T09:03:10.227Z,17.90
2022-12-20T09:05:12.109Z,14.45
2022-12-20T09:07:13.817Z,14.70
2022-12-20T09:09:16.565Z,42.22
2022-12-20T09:11:23.587Z,16.80
2022-12-20T09:13:25.325Z,13.50
2022-12-20T09:15:28.152Z,17.63
2022-12-20T09:17:30.202Z,15.27
2022-12-20T09:19:32.052Z,15.70
2022-12-20T09:21:34.871Z,15.65
2022-12-20T09:23:37.433Z,15.15
2022-12-20T09:25:39.274Z,14.63
2022-12-20T09:27:40.955Z,15.45
2022-12-20T09:29:42.970Z,18.27
2022-12-20T09:31:45.189Z,18.10
2022-12-20T09:33:47.100Z,20.50
2022-12-20T09:35:48.807Z,18.58
2022-12-20T09:37:50.424Z,14.77
2022-12-20T09:39:52.242Z,15.05
2022-12-20T09:41:54.322Z,13.18
2022-12-20T09:43:57.960Z,11.52
2022-12-20T09:46:02.658Z,12.93
2022-12-20T09:48:05.882Z,14.13
2022-12-20T09:50:08.204Z,13.63
2022-12-20T09:52:47.180Z,13.43
2022-12-20T09:55:10.365Z,15.55
2022-12-20T09:57:22.140Z,17.58
2022-12-20T09:59:25.238Z,16.50
2022-12-20T10:01:36.238Z,29.38
2022-12-20T10:03:40.033Z,17.70
2022-12-20T10:05:54.750Z,18.50
2022-12-20T10:08:23.956Z,16.45
2022-12-20T10:10:45.848Z,16.80
2022-12-20T10:13:14.422Z,17.48
2022-12-20T10:15:19.226Z,17.92
2022-12-20T10:17:44.840Z,18.58
2022-12-20T10:19:59.409Z,15.55
2022-12-20T10:22:26.695Z,15.52
2022-12-20T10:24:31.246Z,19.98
2022-12-20T10:26:33.420Z,18.83
2022-12-20T10:28:36.053Z,17.25
2022-12-20T10:30:37.708Z,16.13
2022-12-20T10:32:40.271Z,15.77
2022-12-20T10:34:52.511Z,17.30
2022-12-20T10:37:14.524Z,14.90
2022-12-20T10:39:16.231Z,17.42
2022-12-20T10:41:22.254Z,19.13
2022-12-20T10:43:25.185Z,16.45
2022-12-20T10:45:36.660Z,18.67
2022-12-20T10:47:42.110Z,17.10
2022-12-20T10:49:43.866Z,15.68
2022-12-20T10:51:53.116Z,19.50
2022-12-20T10:53:59.679Z,16.83
2022-12-20T10:56:21.086Z,17.52
2022-12-20T10:58:30.380Z,18.83
2022-12-20T11:00:33.212Z,15.25
2022-12-20T11:02:42.430Z,18.20
2022-12-20T11:05:01.040Z,13.05
2022-12-20T11:07:14.026Z,15.57
2022-12-20T11:09:33.770Z,17.08
2022-12-20T11:11:35.600Z,15.52
2022-12-20T11:13:37.437Z,18.90
2022-12-20T11:15:49.303Z,12.43
2022-12-20T11:17:58.537Z,16.08
2022-12-20T11:20:26.590Z,15.45
2022-12-20T11:22:43.475Z,15.15
2022-12-20T11:25:12.750Z,16.48
2022-12-20T11:27:24.462Z,14.93
2022-12-20T11:30:11.352Z,14.60
2022-12-20T11:32:48.656Z,15.65
2022-12-20T11:35:20.956Z,11.95
2022-12-20T11:37:27.079Z,14.68
2022-12-20T11:39:48.864Z,17.38
2022-12-20T11:42:01.160Z,13.30
2022-12-20T11:44:25.158Z,13.35
2022-12-20T11:46:40.972Z,14.90
2022-12-20T11:48:54.263Z,13.10
2022-12-20T11:51:07.576Z,13.77
2022-12-20T11:53:20.418Z,14.00
2022-12-20T11:55:27.669Z,16.67
2022-12-20T11:57:54.891Z,13.57
2022-12-20T11:59:59.041Z,14.27
2022-12-20T12:02:23.389Z,13.68
2022-12-20T12:04:31.792Z,13.45
2022-12-20T12:06:40.100Z,11.68
2022-12-20T12:08:47.100Z,11.55
2022-12-20T12:11:32.271Z,11.93
2022-12-20T12:13:36.571Z,14.15
2022-12-20T12:15:48.775Z,13.40
2022-12-20T12:18:06.086Z,14.38
2022-12-20T12:20:25.795Z,11.80
2022-12-20T12:22:33.364Z,12.20
2022-12-20T12:24:43.984Z,14.15
2022-12-20T12:26:45.681Z,14.32
2022-12-20T12:28:58.375Z,11.38
2022-12-20T12:31:07.269Z,11.63
2022-12-20T12:33:22.145Z,16.20
2022-12-20T12:35:35.003Z,15.52
2022-12-20T12:37:51.401Z,16.05
2022-12-20T12:40:37.128Z,14.98
2022-12-20T12:43:06.853Z,21.27
2022-12-20T12:45:29.341Z,21.58
2022-12-20T12:47:39.212Z,15.50
2022-12-20T12:49:41.217Z,20.75
2022-12-20T12:51:50.169Z,18.67
2022-12-20T12:53:54.115Z,17.73
2022-12-20T12:56:12.887Z,18.20
2022-12-20T12:58:23.560Z,14.68
2022-12-20T13:00:59.370Z,17.70
2022-12-20T13:03:06.074Z,15.88
2022-12-20T13:05:10.626Z,15.60
2022-12-20T13:07:33.959Z,18.27
2022-12-20T13:09:37.834Z,16.15
2022-12-20T13:13:48.684Z,17.50
2022-12-20T13:15:51.545Z,17.95
2022-12-20T13:18:00.530Z,17.10
2022-12-20T13:20:02.318Z,16.48
2022-12-20T13:22:13.388Z,15.77
2022-12-20T13:24:38.242Z,15.25
2022-12-20T13:26:51.060Z,18.52
2022-12-20T13:28:53.008Z,12.35
2022-12-20T13:31:04.907Z,13.35
2022-12-20T13:33:25.879Z,15.07
2022-12-20T13:35:47.778Z,15.25
2022-12-20T13:38:04.086Z,16.10
2022-12-20T13:40:06.719Z,15.90
2022-12-20T13:42:34.474Z,14.05
2022-12-20T13:44:41.505Z,16.48
2022-12-20T13:46:46.843Z,14.85
2022-12-20T13:48:54.232Z,21.58
2022-12-20T13:50:57.030Z,13.50
2022-12-20T13:52:59.231Z,12.80
2022-12-20T13:55:05.529Z,16.90
2022-12-20T13:57:08.096Z,14.40
2022-12-20T13:59:32.332Z,15.88
2022-12-20T14:01:36.215Z,17.48
2022-12-20T14:03:48.138Z,16.75
2022-12-20T14:06:01.699Z,16.25
2022-12-20T14:08:20.453Z,16.47
2022-12-20T14:10:27.774Z,16.58
2022-12-20T14:12:36.511Z,20.40
2022-12-20T14:14:49.879Z,17.90
2022-12-20T14:16:51.636Z,14.85
2022-12-20T14:19:05.310Z,16.58
2022-12-20T14:21:07.383Z,17.98
2022-12-20T14:23:18.826Z,16.52
2022-12-20T14:25:30.259Z,15.95
2022-12-20T14:27:34.948Z,17.55
2022-12-20T14:29:37.685Z,16.33
2022-12-20T14:31:42.064Z,19.67
2022-12-20T14:33:43.820Z,21.33
2022-12-20T14:35:49.580Z,18.30
2022-12-20T14:38:19.263Z,17.73
2022-12-20T14:40:21.573Z,19.42
2022-12-20T14:42:23.378Z,23.05
2022-12-20T14:44:28.358Z,16.73
2022-12-20T14:46:31.211Z,27.08
2022-12-20T14:48:32.949Z,21.88
2022-12-20T14:50:36.599Z,22.23
2022-12-20T14:52:39.513Z,19.10
2022-12-20T14:57:12.516Z,19.20
2022-12-20T14:59:18.326Z,23.50
2022-12-20T15:01:27.782Z,20.30
2022-12-20T15:03:29.913Z,17.00
2022-12-20T15:05:40.974Z,16.75
2022-12-20T15:07:42.682Z,16.17
2022-12-20T15:09:44.373Z,20.80
2022-12-20T15:11:46.865Z,19.10
2022-12-20T15:13:52.543Z,15.77
2022-12-20T15:15:54.261Z,15.38
2022-12-20T15:17:57.204Z,14.43
2022-12-20T15:19:59.552Z,17.42
2022-12-20T15:22:02.007Z,13.97
2022-12-20T15:24:10.262Z,11.07
2022-12-20T15:26:15.386Z,12.88
2022-12-20T15:28:22.743Z,14.70
2022-12-20T15:30:24.578Z,10.90
2022-12-20T15:32:29.746Z,13.63
2022-12-20T15:34:36.590Z,14.07
2022-12-20T15:36:38.742Z,17.85
2022-12-20T15:39:10.768Z,12.85
2022-12-20T15:41:06.528Z,15.45
2022-12-20T15:43:12.629Z,14.13
2022-12-20T15:45:14.778Z,13.48
2022-12-20T15:47:16.976Z,15.38
2022-12-20T15:49:41.974Z,16.25
2022-12-20T15:51:49.403Z,15.70
2022-12-20T15:53:51.196Z,12.25
2022-12-20T15:55:54.139Z,9.57
2022-12-20T15:57:55.745Z,16.37
2022-12-20T16:00:01.023Z,12.73
2022-12-20T16:02:03.826Z,22.60
2022-12-20T16:04:06.492Z,10.00
2022-12-20T16:06:13.099Z,14.15
2022-12-20T16:08:16.491Z,14.18
2022-12-20T16:10:18.326Z,15.07
2022-12-20T16:12:24.761Z,14.88
2022-12-20T16:14:27.661Z,13.73
2022-12-20T16:16:32.083Z,16.90
2022-12-20T16:18:34.921Z,12.32
2022-12-20T16:20:37.069Z,12.63
2022-12-20T16:22:38.740Z,13.52
2022-12-20T16:24:40.782Z,15.40
2022-12-20T16:26:43.263Z,14.82
2022-12-20T16:28:45.745Z,11.82
2022-12-20T16:30:52.953Z,15.15
2022-12-20T16:32:55.387Z,16.05
2022-12-20T16:34:57.052Z,30.25
2022-12-20T16:36:58.707Z,27.08
2022-12-20T16:39:00.384Z,27.27
2022-12-20T16:41:18.486Z,31.50
2022-12-20T16:43:20.092Z,27.63
2022-12-20T16:45:24.360Z,33.42
2022-12-20T16:47:26.457Z,34.47
2022-12-20T16:49:28.368Z,37.70
2022-12-20T16:51:35.724Z,33.08
2022-12-20T16:54:02.181Z,32.92
2022-12-20T16:55:59.198Z,31.10
2022-12-20T16:58:00.987Z,31.50
2022-12-20T17:00:03.096Z,34.38
2022-12-20T17:02:27.511Z,36.05
2022-12-20T17:04:29.342Z,31.92
2022-12-20T17:06:31.239Z,37.95
2022-12-20T17:10:53.008Z,21.63
2022-12-20T17:12:55.290Z,24.33
2022-12-20T17:14:57.039Z,22.17
2022-12-20T17:16:58.773Z,25.60
2022-12-20T17:19:01.525Z,19.80
2022-12-20T17:21:05.122Z,19.85
2022-12-20T17:23:10.040Z,29.55
2022-12-20T17:25:20.780Z,20.33
2022-12-20T17:27:22.504Z,14.73
2022-12-20T17:29:24.125Z,21.98
2022-12-20T17:31:39.581Z,16.58
2022-12-20T17:33:41.285Z,18.65
2022-12-20T17:35:43.923Z,21.17
2022-12-20T17:37:47.864Z,15.73
2022-12-20T17:41:52.278Z,13.82
2022-12-20T17:43:54.755Z,14.23
2022-12-20T17:45:57.749Z,18.40
2022-12-20T17:47:59.642Z,12.23
2022-12-20T17:50:01.331Z,16.92
2022-12-20T17:52:04.221Z,13.43
2022-12-20T17:54:05.946Z,17.38
2022-12-20T17:56:16.294Z,16.98
2022-12-20T17:58:17.904Z,14.30
2022-12-20T18:00:23.716Z,17.05
2022-12-20T18:02:26.317Z,13.82
2022-12-20T18:04:28.513Z,60.45
2022-12-20T18:06:32.032Z,45.20
2022-12-20T18:08:33.765Z,56.65
2022-12-20T18:10:36.659Z,52.92
2022-12-20T18:12:39.112Z,183.45
2022-12-20T18:14:41.004Z,78.65
2022-12-20T18:16:42.811Z,55.72
2022-12-20T18:18:44.730Z,109.13
2022-12-20T18:20:46.454Z,132.40
2022-12-20T18:22:48.775Z,164.15
2022-12-20T18:24:50.510Z,115.93
2022-12-20T18:26:53.472Z,77.03
2022-12-20T18:29:02.236Z,111.20
2022-12-20T18:31:05.993Z,81.38
2022-12-20T18:33:07.773Z,89.93
2022-12-20T18:35:10.007Z,82.20
2022-12-20T18:37:11.745Z,81.05
2022-12-20T18:39:13.935Z,81.28
2022-12-20T18:41:23.966Z,80.32
2022-12-20T18:43:27.505Z,81.03
2022-12-20T18:45:29.255Z,93.25
2022-12-20T18:47:32.515Z,53.75
2022-12-20T18:49:35.073Z,45.20
2022-12-20T18:51:37.369Z,47.25
2022-12-20T18:53:40.801Z,44.30
2022-12-20T18:55:43.813Z,44.70
2022-12-20T18:57:45.532Z,62.77
2022-12-20T18:59:47.480Z,74.03
2022-12-20T19:01:49.869Z,81.68
2022-12-20T19:03:52.701Z,74.13
2022-12-20T19:05:55.569Z,78.22
2022-12-20T19:07:57.427Z,76.13
2022-12-20T19:09:59.180Z,77.47
2022-12-20T19:12:01.002Z,84.00
2022-12-20T19:14:03.845Z,80.15
2022-12-20T19:16:12.081Z,69.10
2022-12-20T19:18:14.425Z,57.63
2022-12-20T19:20:16.603Z,58.85
2022-12-20T19:22:18.531Z,46.58
2022-12-20T19:24:20.170Z,56.53
2022-12-20T19:26:24.388Z,60.63
2022-12-20T19:28:26.223Z,61.40
2022-12-20T19:30:28.095Z,61.95
2022-12-20T19:32:29.973Z,66.38
2022-12-20T19:34:31.658Z,60.60
2022-12-20T19:36:42.141Z,66.32
2022-12-20T19:38:45.678Z,59.22
2022-12-20T19:40:53.930Z,62.75
2022-12-20T19:42:55.804Z,61.20
2022-12-20T19:44:57.480Z,55.17
2022-12-20T19:47:06.046Z,60.60
2022-12-20T19:49:07.939Z,61.15
2022-12-20T19:51:15.682Z,60.45
2022-12-20T19:53:17.386Z,57.45
2022-12-20T19:55:19.107Z,59.97
2022-12-20T19:57:20.787Z,63.58
2022-12-20T19:59:22.796Z,59.90
2022-12-20T20:01:27.182Z,56.55
2022-12-20T20:03:30.896Z,59.45
2022-12-20T20:05:34.944Z,66.82
2022-12-20T20:07:36.576Z,60.17
2022-12-20T20:09:38.874Z,79.90
2022-12-20T20:11:40.761Z,60.03
2022-12-20T20:13:42.465Z,58.20
2022-12-20T20:15:50.793Z,53.70
2022-12-20T20:17:52.502Z,57.00
2022-12-20T20:19:54.242Z,56.90
2022-12-20T20:21:56.152Z,49.72
2022-12-20T20:23:57.858Z,55.05
2022-12-20T20:26:00.211Z,59.53
2022-12-20T20:28:02.983Z,54.53
2022-12-20T20:30:07.101Z,61.42
2022-12-20T20:32:09.183Z,71.25
2022-12-20T20:34:10.929Z,74.13
2022-12-20T20:36:14.457Z,71.13
2022-12-20T20:38:16.196Z,74.57
2022-12-20T20:40:18.297Z,72.60
2022-12-20T20:42:23.400Z,63.35
2022-12-20T20:44:25.701Z,67.40
2022-12-20T20:46:28.338Z,65.85
2022-12-20T20:48:33.424Z,66.78
2022-12-20T20:50:35.167Z,65.07
2022-12-20T20:52:36.905Z,66.78
2022-12-20T20:54:40.029Z,66.50
2022-12-20T20:56:42.107Z,69.05
2022-12-20T20:58:43.926Z,71.07
2022-12-20T21:00:45.569Z,68.32
2022-12-20T21:02:47.576Z,67.45
2022-12-20T21:05:14.391Z,76.75
2022-12-20T21:07:12.810Z,71.78
2022-12-20T21:09:14.944Z,72.88
2022-12-20T21:11:17.433Z,66.18
2022-12-20T21:13:19.389Z,66.55
2022-12-20T21:15:23.255Z,60.97
2022-12-20T21:17:25.482Z,69.15
2022-12-20T21:19:27.118Z,60.30
2022-12-20T21:21:29.063Z,63.47
2022-12-20T21:23:30.647Z,60.00
2022-12-20T21:25:32.636Z,59.55
2022-12-20T21:27:34.366Z,63.92
2022-12-20T21:29:36.137Z,69.40
2022-12-20T21:31:37.788Z,64.13
2022-12-20T21:33:39.960Z,66.30
2022-12-20T21:35:45.166Z,59.28
2022-12-20T21:37:50.135Z,62.13
2022-12-20T21:39:52.428Z,68.28
2022-12-20T21:41:59.958Z,66.28
2022-12-20T21:44:04.672Z,55.00
2022-12-20T21:46:11.287Z,54.88
2022-12-20T21:48:15.557Z,58.22
2022-12-20T21:50:17.259Z,62.20
2022-12-20T21:52:19.166Z,51.00
2022-12-20T21:54:20.919Z,55.55
2022-12-20T21:56:24.330Z,59.25
2022-12-20T21:58:27.629Z,52.65
2022-12-20T22:00:30.387Z,52.30
2022-12-20T22:02:32.206Z,51.00
2022-12-20T22:04:34.704Z,56.63
2022-12-20T22:06:36.383Z,54.30
2022-12-20T22:08:38.105Z,56.58
2022-12-20T22:10:39.848Z,67.03
2022-12-20T22:12:41.619Z,67.22
2022-12-20T22:14:43.282Z,60.55
2022-12-20T22:16:45.111Z,56.83
2022-12-20T22:18:51.495Z,62.40
2022-12-20T22:20:53.280Z,62.95
2022-12-20T22:22:55.013Z,62.75
2022-12-20T22:24:56.633Z,62.95
2022-12-20T22:27:01.992Z,65.70
2022-12-20T22:29:06.481Z,68.50
2022-12-20T22:31:09.412Z,65.10
2022-12-20T22:33:11.770Z,58.95
2022-12-20T22:35:16.422Z,59.92
2022-12-20T22:37:22.824Z,62.63
2022-12-20T22:39:24.558Z,55.50
2022-12-20T22:41:30.765Z,60.45
2022-12-20T22:43:32.564Z,59.78
2022-12-20T22:45:34.369Z,53.67
2022-12-20T22:47:36.322Z,57.38
2022-12-20T22:49:38.057Z,54.53
2022-12-20T22:51:39.743Z,56.85
2022-12-20T22:53:41.950Z,48.72
2022-12-20T22:55:43.568Z,51.45
2022-12-20T22:57:45.190Z,50.80
2022-12-20T22:59:46.831Z,50.10
2022-12-20T23:01:48.595Z,48.70
2022-12-20T23:03:50.651Z,48.95
2022-12-20T23:05:56.796Z,51.25
2022-12-20T23:07:58.535Z,56.95
2022-12-20T23:10:00.373Z,51.92
2022-12-20T23:12:20.573Z,54.50
2022-12-20T23:14:41.811Z,50.50
2022-12-20T23:16:43.688Z,53.25
2022-12-20T23:18:45.394Z,55.47
2022-12-20T23:21:11.115Z,49.67
2022-12-20T23:23:12.766Z,48.20
2022-12-20T23:25:21.168Z,54.30
2022-12-20T23:27:22.791Z,53.85
2022-12-20T23:29:24.691Z,49.92
2022-12-20T23:31:26.324Z,47.15
2022-12-20T23:33:28.296Z,48.42
2022-12-20T23:35:29.949Z,48.08
2022-12-20T23:37:33.571Z,50.25
2022-12-20T23:39:35.218Z,53.42
2022-12-20T23:41:36.901Z,55.88
2022-12-20T23:43:38.748Z,47.97
2022-12-20T23:45:40.350Z,48.33
2022-12-20T23:47:41.999Z,52.55
2022-12-20T23:49:43.639Z,50.30
2022-12-20T23:51:45.324Z,52.28
2022-12-20T23:53:51.191Z,46.47
2022-12-20T23:56:20.288Z,48.08
2022-12-20T23:58:21.988Z,49.60
